sensor_id;sensor_type;location;lat;lon;timestamp;P1;P2;P0
56360;PMS7003;42611;51.132;13.588;2023-04-24T00:04:02;15.7;15.2;
56360;PMS7003;42611;51.132;13.588;2023-04-24T00:09:02;12.7;12.4;
56360;PMS7003;42611;51.132;13.588;2023-04-24T00:14:01;13.5;13.0;
56360;PMS7003;42611;51.132;13.588;2023-04-24T00:19:01;14.6;13.7;
56360;PMS7003;42611;51.132;13.588;2023-04-24T00:24:01;14.8;13.8;
56360;PMS7003;42611;51.132;13.588;2023-04-24T00:29:02;15.3;14.3;
56360;PMS7003;42611;51.132;13.588;2023-04-24T00:34:01;19.7;18.4;
56360;PMS7003;42611;51.132;13.588;2023-04-24T00:39:01;19.3;17.9;
56360;PMS7003;42611;51.132;13.588;2023-04-24T00:44:01;17.6;16.3;
56360;PMS7003;42611;51.132;13.588;2023-04-24T00:49:01;17.9;16.2;
56360;PMS7003;42611;51.132;13.588;2023-04-24T00:54:01;17.1;15.5;
56360;PMS7003;42611;51.132;13.588;2023-04-24T00:59:02;16.1;14.7;
56360;PMS7003;42611;51.132;13.588;2023-04-24T01:04:02;15.0;13.8;
56360;PMS7003;42611;51.132;13.588;2023-04-24T01:09:01;14.6;13.8;
56360;PMS7003;42611;51.132;13.588;2023-04-24T01:14:01;13.6;13.0;
56360;PMS7003;42611;51.132;13.588;2023-04-24T01:19:01;13.4;12.8;
56360;PMS7003;42611;51.132;13.588;2023-04-24T01:24:01;12.6;11.8;
56360;PMS7003;42611;51.132;13.588;2023-04-24T01:29:01;12.7;11.8;
56360;PMS7003;42611;51.132;13.588;2023-04-24T01:34:01;13.2;12.4;
56360;PMS7003;42611;51.132;13.588;2023-04-24T01:39:01;13.8;12.7;
56360;PMS7003;42611;51.132;13.588;2023-04-24T01:44:01;14.5;13.2;
56360;PMS7003;42611;51.132;13.588;2023-04-24T01:49:01;14.6;13.7;
56360;PMS7003;42611;51.132;13.588;2023-04-24T01:54:02;14.8;13.8;
56360;PMS7003;42611;51.132;13.588;2023-04-24T02:04:02;13.5;12.9;
56360;PMS7003;42611;51.132;13.588;2023-04-24T02:09:02;12.0;11.8;
56360;PMS7003;42611;51.132;13.588;2023-04-24T02:14:01;11.4;10.7;
56360;PMS7003;42611;51.132;13.588;2023-04-24T02:19:02;10.5;9.7;
56360;PMS7003;42611;51.132;13.588;2023-04-24T02:24:01;9.8;9.0;
56360;PMS7003;42611;51.132;13.588;2023-04-24T02:30:02;9.2;8.4;
56360;PMS7003;42611;51.132;13.588;2023-04-24T02:35:01;8.6;7.8;
56360;PMS7003;42611;51.132;13.588;2023-04-24T02:40:01;8.0;7.5;
56360;PMS7003;42611;51.132;13.588;2023-04-24T02:45:03;8.1;7.6;
56360;PMS7003;42611;51.132;13.588;2023-04-24T02:50:03;8.0;7.6;
56360;PMS7003;42611;51.132;13.588;2023-04-24T02:55:01;8.6;8.0;
56360;PMS7003;42611;51.132;13.588;2023-04-24T03:00:02;7.1;6.6;
56360;PMS7003;42611;51.132;13.588;2023-04-24T03:05:02;7.2;6.8;
56360;PMS7003;42611;51.132;13.588;2023-04-24T03:10:01;7.1;6.7;
56360;PMS7003;42611;51.132;13.588;2023-04-24T03:15:02;6.7;6.4;
56360;PMS7003;42611;51.132;13.588;2023-04-24T03:20:01;5.5;5.5;
56360;PMS7003;42611;51.132;13.588;2023-04-24T03:25:01;6.1;6.1;
56360;PMS7003;42611;51.132;13.588;2023-04-24T03:30:02;5.6;5.6;
56360;PMS7003;42611;51.132;13.588;2023-04-24T03:35:01;5.3;5.2;
56360;PMS7003;42611;51.132;13.588;2023-04-24T03:40:01;4.2;4.1;
56360;PMS7003;42611;51.132;13.588;2023-04-24T03:45:02;3.8;3.6;
56360;PMS7003;42611;51.132;13.588;2023-04-24T03:50:01;3.0;2.8;
56360;PMS7003;42611;51.132;13.588;2023-04-24T03:55:01;2.4;2.2;
56360;PMS7003;42611;51.132;13.588;2023-04-24T04:00:02;2.0;1.6;
56360;PMS7003;42611;51.132;13.588;2023-04-24T04:05:02;2.1;1.6;
56360;PMS7003;42611;51.132;13.588;2023-04-24T04:10:02;2.0;1.4;
56360;PMS7003;42611;51.132;13.588;2023-04-24T04:15:03;2.4;1.8;
56360;PMS7003;42611;51.132;13.588;2023-04-24T04:25:02;1.7;1.2;
56360;PMS7003;42611;51.132;13.588;2023-04-24T04:30:02;1.6;0.9;
56360;PMS7003;42611;51.132;13.588;2023-04-24T04:35:02;1.4;0.7;
56360;PMS7003;42611;51.132;13.588;2023-04-24T04:45:03;1.4;1.1;
56360;PMS7003;42611;51.132;13.588;2023-04-24T04:55:01;1.1;1.0;
56360;PMS7003;42611;51.132;13.588;2023-04-24T05:00:02;1.5;1.4;
56360;PMS7003;42611;51.132;13.588;2023-04-24T05:11:09;1.7;1.5;
56360;PMS7003;42611;51.132;13.588;2023-04-24T05:16:01;1.9;1.7;
56360;PMS7003;42611;51.132;13.588;2023-04-24T05:21:01;2.4;2.1;
56360;PMS7003;42611;51.132;13.588;2023-04-24T05:26:02;2.2;1.9;
56360;PMS7003;42611;51.132;13.588;2023-04-24T05:36:01;1.8;1.7;
56360;PMS7003;42611;51.132;13.588;2023-04-24T05:41:01;2.0;1.9;
56360;PMS7003;42611;51.132;13.588;2023-04-24T05:46:01;1.4;1.4;
56360;PMS7003;42611;51.132;13.588;2023-04-24T05:52:01;1.6;1.6;
56360;PMS7003;42611;51.132;13.588;2023-04-24T06:02:01;1.8;1.6;
56360;PMS7003;42611;51.132;13.588;2023-04-24T06:07:02;1.4;1.2;
56360;PMS7003;42611;51.132;13.588;2023-04-24T06:12:02;1.9;1.8;
56360;PMS7003;42611;51.132;13.588;2023-04-24T06:17:02;1.7;1.6;
56360;PMS7003;42611;51.132;13.588;2023-04-24T06:22:01;1.8;1.6;
56360;PMS7003;42611;51.132;13.588;2023-04-24T06:27:01;2.3;2.3;
56360;PMS7003;42611;51.132;13.588;2023-04-24T06:32:01;3.2;2.8;
56360;PMS7003;42611;51.132;13.588;2023-04-24T06:37:01;2.9;2.4;
56360;PMS7003;42611;51.132;13.588;2023-04-24T06:42:01;3.1;2.6;
56360;PMS7003;42611;51.132;13.588;2023-04-24T06:47:01;3.0;2.6;
56360;PMS7003;42611;51.132;13.588;2023-04-24T06:52:01;2.6;2.1;
56360;PMS7003;42611;51.132;13.588;2023-04-24T06:57:01;2.0;2.0;
56360;PMS7003;42611;51.132;13.588;2023-04-24T07:02:02;1.9;1.9;
56360;PMS7003;42611;51.132;13.588;2023-04-24T07:07:01;1.5;1.5;
56360;PMS7003;42611;51.132;13.588;2023-04-24T07:12:02;1.3;1.3;
56360;PMS7003;42611;51.132;13.588;2023-04-24T07:17:03;1.0;1.0;
56360;PMS7003;42611;51.132;13.588;2023-04-24T07:22:01;0.7;0.7;
56360;PMS7003;42611;51.132;13.588;2023-04-24T07:27:01;0.6;0.6;
56360;PMS7003;42611;51.132;13.588;2023-04-24T07:32:04;0.7;0.7;
56360;PMS7003;42611;51.132;13.588;2023-04-24T07:42:01;0.8;0.8;
56360;PMS7003;42611;51.132;13.588;2023-04-24T07:47:01;0.7;0.7;
56360;PMS7003;42611;51.132;13.588;2023-04-24T07:57:02;0.8;0.8;
56360;PMS7003;42611;51.132;13.588;2023-04-24T08:02:01;0.7;0.7;
56360;PMS7003;42611;51.132;13.588;2023-04-24T08:07:01;0.5;0.5;
56360;PMS7003;42611;51.132;13.588;2023-04-24T08:12:01;0.4;0.4;
56360;PMS7003;42611;51.132;13.588;2023-04-24T08:17:02;0.6;0.4;
56360;PMS7003;42611;51.132;13.588;2023-04-24T08:22:02;0.4;0.2;
56360;PMS7003;42611;51.132;13.588;2023-04-24T08:37:02;0.4;0.2;
56360;PMS7003;42611;51.132;13.588;2023-04-24T08:47:02;0.3;0.2;
56360;PMS7003;42611;51.132;13.588;2023-04-24T08:52:01;0.2;0.1;
56360;PMS7003;42611;51.132;13.588;2023-04-24T09:12:06;0.2;0.2;
56360;PMS7003;42611;51.132;13.588;2023-04-24T09:27:02;0.2;0.2;
56360;PMS7003;42611;51.132;13.588;2023-04-24T09:47:01;0.4;0.0;
56360;PMS7003;42611;51.132;13.588;2023-04-24T10:02:01;0.4;0.0;
56360;PMS7003;42611;51.132;13.588;2023-04-24T10:07:03;0.6;0.2;
56360;PMS7003;42611;51.132;13.588;2023-04-24T10:12:01;0.2;0.2;
56360;PMS7003;42611;51.132;13.588;2023-04-24T10:17:01;0.6;0.2;
56360;PMS7003;42611;51.132;13.588;2023-04-24T10:27:03;0.8;0.4;
56360;PMS7003;42611;51.132;13.588;2023-04-24T10:32:07;0.6;0.2;
56360;PMS7003;42611;51.132;13.588;2023-04-24T10:37:01;1.2;0.6;
56360;PMS7003;42611;51.132;13.588;2023-04-24T10:42:01;1.1;0.6;
56360;PMS7003;42611;51.132;13.588;2023-04-24T10:52:02;1.7;1.2;
56360;PMS7003;42611;51.132;13.588;2023-04-24T10:57:33;1.9;1.4;
56360;PMS7003;42611;51.132;13.588;2023-04-24T11:07:02;1.6;1.2;
56360;PMS7003;42611;51.132;13.588;2023-04-24T11:17:08;0.8;0.4;
56360;PMS7003;42611;51.132;13.588;2023-04-24T11:22:02;0.6;0.2;
56360;PMS7003;42611;51.132;13.588;2023-04-24T11:37:01;0.2;0.0;
56360;PMS7003;42611;51.132;13.588;2023-04-24T11:42:15;0.4;0.3;
56360;PMS7003;42611;51.132;13.588;2023-04-24T11:47:01;0.6;0.4;
56360;PMS7003;42611;51.132;13.588;2023-04-24T12:03:08;0.6;0.5;
56360;PMS7003;42611;51.132;13.588;2023-04-24T12:08:02;0.7;0.3;
56360;PMS7003;42611;51.132;13.588;2023-04-24T12:13:01;0.6;0.2;
56360;PMS7003;42611;51.132;13.588;2023-04-24T12:18:03;0.5;0.2;
56360;PMS7003;42611;51.132;13.588;2023-04-24T12:23:01;0.6;0.3;
56360;PMS7003;42611;51.132;13.588;2023-04-24T12:33:02;0.3;0.3;
56360;PMS7003;42611;51.132;13.588;2023-04-24T12:43:12;0.5;0.5;
56360;PMS7003;42611;51.132;13.588;2023-04-24T12:48:01;0.6;0.6;
56360;PMS7003;42611;51.132;13.588;2023-04-24T12:53:01;0.7;0.7;
56360;PMS7003;42611;51.132;13.588;2023-04-24T12:58:01;0.9;0.9;
56360;PMS7003;42611;51.132;13.588;2023-04-24T13:03:04;1.1;1.1;
56360;PMS7003;42611;51.132;13.588;2023-04-24T13:08:01;0.9;0.9;
56360;PMS7003;42611;51.132;13.588;2023-04-24T13:13:01;1.1;1.1;
56360;PMS7003;42611;51.132;13.588;2023-04-24T13:23:01;0.9;0.9;
56360;PMS7003;42611;51.132;13.588;2023-04-24T13:33:02;1.1;1.1;
56360;PMS7003;42611;51.132;13.588;2023-04-24T13:38:01;0.7;0.7;
56360;PMS7003;42611;51.132;13.588;2023-04-24T13:43:01;0.8;0.8;
56360;PMS7003;42611;51.132;13.588;2023-04-24T13:48:01;0.9;0.9;
56360;PMS7003;42611;51.132;13.588;2023-04-24T13:53:04;0.7;0.7;
56360;PMS7003;42611;51.132;13.588;2023-04-24T13:58:01;0.5;0.5;
56360;PMS7003;42611;51.132;13.588;2023-04-24T14:03:29;0.7;0.7;
56360;PMS7003;42611;51.132;13.588;2023-04-24T14:08:02;0.6;0.6;
56360;PMS7003;42611;51.132;13.588;2023-04-24T14:13:01;1.0;0.8;
56360;PMS7003;42611;51.132;13.588;2023-04-24T14:18:03;1.4;1.2;
56360;PMS7003;42611;51.132;13.588;2023-04-24T14:23:02;1.8;1.6;
56360;PMS7003;42611;51.132;13.588;2023-04-24T14:28:01;2.1;1.7;
56360;PMS7003;42611;51.132;13.588;2023-04-24T14:33:02;2.0;1.6;
56360;PMS7003;42611;51.132;13.588;2023-04-24T14:38:11;1.6;1.4;
56360;PMS7003;42611;51.132;13.588;2023-04-24T14:43:01;1.7;1.4;
56360;PMS7003;42611;51.132;13.588;2023-04-24T14:48:07;1.5;1.2;
56360;PMS7003;42611;51.132;13.588;2023-04-24T14:53:01;1.3;1.0;
56360;PMS7003;42611;51.132;13.588;2023-04-24T14:58:17;1.6;1.4;
56360;PMS7003;42611;51.132;13.588;2023-04-24T15:03:05;1.5;1.2;
56360;PMS7003;42611;51.132;13.588;2023-04-24T15:08:01;1.2;1.0;
56360;PMS7003;42611;51.132;13.588;2023-04-24T15:13:01;1.4;1.2;
56360;PMS7003;42611;51.132;13.588;2023-04-24T15:18:01;1.2;1.2;
56360;PMS7003;42611;51.132;13.588;2023-04-24T15:23:02;1.0;1.0;
56360;PMS7003;42611;51.132;13.588;2023-04-24T15:28:01;1.3;1.3;
56360;PMS7003;42611;51.132;13.588;2023-04-24T15:33:01;1.6;1.4;
56360;PMS7003;42611;51.132;13.588;2023-04-24T15:43:02;1.9;1.7;
56360;PMS7003;42611;51.132;13.588;2023-04-24T15:48:01;1.8;1.5;
56360;PMS7003;42611;51.132;13.588;2023-04-24T15:53:02;1.6;1.3;
56360;PMS7003;42611;51.132;13.588;2023-04-24T15:58:01;1.5;1.5;
56360;PMS7003;42611;51.132;13.588;2023-04-24T16:03:02;1.3;1.3;
56360;PMS7003;42611;51.132;13.588;2023-04-24T16:08:01;1.2;1.2;
56360;PMS7003;42611;51.132;13.588;2023-04-24T16:13:01;1.6;1.6;
56360;PMS7003;42611;51.132;13.588;2023-04-24T16:18:02;1.8;1.8;
56360;PMS7003;42611;51.132;13.588;2023-04-24T16:28:01;1.6;1.6;
56360;PMS7003;42611;51.132;13.588;2023-04-24T16:33:01;1.5;1.5;
56360;PMS7003;42611;51.132;13.588;2023-04-24T16:38:02;1.3;1.3;
56360;PMS7003;42611;51.132;13.588;2023-04-24T16:43:01;1.1;1.1;
56360;PMS7003;42611;51.132;13.588;2023-04-24T16:49:01;0.7;0.7;
56360;PMS7003;42611;51.132;13.588;2023-04-24T16:54:01;0.8;0.8;
56360;PMS7003;42611;51.132;13.588;2023-04-24T17:09:01;0.6;0.6;
56360;PMS7003;42611;51.132;13.588;2023-04-24T17:14:01;0.8;0.8;
56360;PMS7003;42611;51.132;13.588;2023-04-24T17:24:01;0.7;0.7;
56360;PMS7003;42611;51.132;13.588;2023-04-24T17:29:01;0.5;0.5;
56360;PMS7003;42611;51.132;13.588;2023-04-24T17:40:02;0.3;0.3;
56360;PMS7003;42611;51.132;13.588;2023-04-24T17:45:04;0.1;0.1;
56360;PMS7003;42611;51.132;13.588;2023-04-24T18:05:02;0.4;0.0;
56360;PMS7003;42611;51.132;13.588;2023-04-24T18:10:01;0.6;0.0;
56360;PMS7003;42611;51.132;13.588;2023-04-24T18:15:17;0.6;0.0;
56360;PMS7003;42611;51.132;13.588;2023-04-24T18:30:03;0.2;0.0;
56360;PMS7003;42611;51.132;13.588;2023-04-24T18:45:03;0.2;0.2;
56360;PMS7003;42611;51.132;13.588;2023-04-24T18:55:02;0.4;0.2;
56360;PMS7003;42611;51.132;13.588;2023-04-24T19:00:03;0.4;0.2;
56360;PMS7003;42611;51.132;13.588;2023-04-24T19:05:01;0.2;0.0;
56360;PMS7003;42611;51.132;13.588;2023-04-24T19:15:02;0.2;0.0;
56360;PMS7003;42611;51.132;13.588;2023-04-24T19:40:01;0.2;0.2;
56360;PMS7003;42611;51.132;13.588;2023-04-24T19:45:03;0.6;0.6;
56360;PMS7003;42611;51.132;13.588;2023-04-24T19:50:01;0.8;0.8;
56360;PMS7003;42611;51.132;13.588;2023-04-24T19:55:01;1.2;1.2;
56360;PMS7003;42611;51.132;13.588;2023-04-24T20:00:02;1.3;1.3;
56360;PMS7003;42611;51.132;13.588;2023-04-24T20:10:01;1.1;1.1;
56360;PMS7003;42611;51.132;13.588;2023-04-24T20:15:03;1.1;1.1;
56360;PMS7003;42611;51.132;13.588;2023-04-24T20:20:01;0.7;0.7;
56360;PMS7003;42611;51.132;13.588;2023-04-24T20:25:01;0.8;0.8;
56360;PMS7003;42611;51.132;13.588;2023-04-24T20:36:01;1.3;1.3;
56360;PMS7003;42611;51.132;13.588;2023-04-24T20:41:01;1.5;1.5;
56360;PMS7003;42611;51.132;13.588;2023-04-24T20:46:01;1.8;1.8;
56360;PMS7003;42611;51.132;13.588;2023-04-24T20:51:01;2.2;2.2;
56360;PMS7003;42611;51.132;13.588;2023-04-24T20:56:01;2.6;2.5;
56360;PMS7003;42611;51.132;13.588;2023-04-24T21:01:01;2.2;2.1;
56360;PMS7003;42611;51.132;13.588;2023-04-24T21:06:01;2.6;2.2;
56360;PMS7003;42611;51.132;13.588;2023-04-24T21:11:01;2.9;2.5;
56360;PMS7003;42611;51.132;13.588;2023-04-24T21:21:01;3.2;2.9;
56360;PMS7003;42611;51.132;13.588;2023-04-24T21:26:02;4.2;3.4;
56360;PMS7003;42611;51.132;13.588;2023-04-24T21:31:01;3.6;3.2;
56360;PMS7003;42611;51.132;13.588;2023-04-24T21:36:01;4.0;3.4;
56360;PMS7003;42611;51.132;13.588;2023-04-24T21:41:01;3.8;3.1;
56360;PMS7003;42611;51.132;13.588;2023-04-24T21:47:01;3.2;2.5;
56360;PMS7003;42611;51.132;13.588;2023-04-24T21:52:01;2.8;2.5;
56360;PMS7003;42611;51.132;13.588;2023-04-24T21:57:01;3.8;2.6;
56360;PMS7003;42611;51.132;13.588;2023-04-24T22:02:01;3.6;2.8;
56360;PMS7003;42611;51.132;13.588;2023-04-24T22:07:01;4.3;3.2;
56360;PMS7003;42611;51.132;13.588;2023-04-24T22:12:01;4.7;3.6;
56360;PMS7003;42611;51.132;13.588;2023-04-24T22:17:01;3.9;2.8;
56360;PMS7003;42611;51.132;13.588;2023-04-24T22:22:01;3.3;3.0;
56360;PMS7003;42611;51.132;13.588;2023-04-24T22:27:02;3.0;2.8;
56360;PMS7003;42611;51.132;13.588;2023-04-24T22:32:01;2.9;2.8;
56360;PMS7003;42611;51.132;13.588;2023-04-24T22:42:01;4.2;4.2;
56360;PMS7003;42611;51.132;13.588;2023-04-24T22:47:01;4.8;4.8;
56360;PMS7003;42611;51.132;13.588;2023-04-24T22:52:01;5.2;5.2;
56360;PMS7003;42611;51.132;13.588;2023-04-24T23:02:01;4.6;4.6;
56360;PMS7003;42611;51.132;13.588;2023-04-24T23:07:01;4.2;3.8;
56360;PMS7003;42611;51.132;13.588;2023-04-24T23:12:01;3.8;3.4;
56360;PMS7003;42611;51.132;13.588;2023-04-24T23:17:02;4.2;3.8;
56360;PMS7003;42611;51.132;13.588;2023-04-24T23:23:01;4.8;3.9;
56360;PMS7003;42611;51.132;13.588;2023-04-24T23:28:01;6.2;5.2;
56360;PMS7003;42611;51.132;13.588;2023-04-24T23:33:01;6.0;5.2;
56360;PMS7003;42611;51.132;13.588;2023-04-24T23:38:01;6.5;5.4;
56360;PMS7003;42611;51.132;13.588;2023-04-24T23:43:09;5.9;4.8;
56360;PMS7003;42611;51.132;13.588;2023-04-24T23:48:01;5.7;5.1;
56360;PMS7003;42611;51.132;13.588;2023-04-24T23:53:01;6.1;5.0;
56360;PMS7003;42611;51.132;13.588;2023-04-24T23:58:01;6.6;5.4;
